createdAt,value
2018-05-29T00:00:50.749Z,22.10
2018-05-29T00:01:50.757Z,22.30
2018-05-29T00:02:50.757Z,21.60
2018-05-29T00:03:50.754Z,21.40
2018-05-29T00:04:50.756Z,22.70
2018-05-29T00:05:50.760Z,21.80
2018-05-29T00:06:50.762Z,22.50
2018-05-29T00:07:50.767Z,21.80
2018-05-29T00:08:50.768Z,23.30
2018-05-29T00:09:50.771Z,22.00
2018-05-29T00:10:50.774Z,21.50
2018-05-29T00:11:50.768Z,22.30
2018-05-29T00:12:50.772Z,23.10
2018-05-29T00:13:50.773Z,23.10
2018-05-29T00:14:50.776Z,23.80
2018-05-29T00:15:50.782Z,23.70
2018-05-29T00:16:50.781Z,23.60
2018-05-29T00:17:50.779Z,22.70
2018-05-29T00:18:50.781Z,22.00
2018-05-29T00:19:50.785Z,23.60
2018-05-29T00:20:50.787Z,22.60
2018-05-29T00:21:50.790Z,23.60
2018-05-29T00:22:50.798Z,23.20
2018-05-29T00:23:50.788Z,22.30
2018-05-29T00:24:50.789Z,23.40
2018-05-29T00:25:50.791Z,24.10
2018-05-29T00:26:50.794Z,23.60
2018-05-29T00:27:50.799Z,23.40
2018-05-29T00:28:50.802Z,23.90
2018-05-29T00:29:50.802Z,24.10
2018-05-29T00:30:50.804Z,23.50
2018-05-29T00:31:50.800Z,22.90
2018-05-29T00:32:50.802Z,24.00
2018-05-29T00:33:50.811Z,23.10
2018-05-29T00:34:50.815Z,23.60
2018-05-29T00:35:50.806Z,24.70
2018-05-29T00:36:50.808Z,24.20
2018-05-29T00:37:50.861Z,24.30
2018-05-29T00:38:50.812Z,23.70
2018-05-29T00:39:50.818Z,25.30
2018-05-29T00:40:50.819Z,24.50
2018-05-29T00:41:50.821Z,25.40
2018-05-29T00:42:50.825Z,24.60
2018-05-29T00:43:50.819Z,25.20
2018-05-29T00:44:50.823Z,25.00
2018-05-29T00:45:50.822Z,24.70
2018-05-29T00:46:50.824Z,24.60
2018-05-29T00:47:50.829Z,24.20
2018-05-29T00:48:50.830Z,24.50
2018-05-29T00:49:50.828Z,25.80
2018-05-29T00:50:50.830Z,24.80
2018-05-29T00:51:50.839Z,24.50
2018-05-29T00:52:50.841Z,24.60
2018-05-29T00:53:50.840Z,24.40
2018-05-29T00:54:50.841Z,23.20
2018-05-29T00:55:50.836Z,23.30
2018-05-29T00:56:50.837Z,25.00
2018-05-29T00:57:50.839Z,24.50
2018-05-29T00:58:50.841Z,24.70
2018-05-29T00:59:50.846Z,24.30
2018-05-29T01:00:50.848Z,24.20
2018-05-29T01:01:50.851Z,25.10
2018-05-29T01:02:50.851Z,24.70
2018-05-29T01:03:50.848Z,24.20
2018-05-29T01:04:50.849Z,24.80
2018-05-29T01:05:50.855Z,23.70
2018-05-29T01:06:50.857Z,24.20
2018-05-29T01:07:50.854Z,24.40
2018-05-29T01:08:50.855Z,25.50
2018-05-29T01:09:50.856Z,24.30
2018-05-29T01:10:50.864Z,24.10
2018-05-29T01:11:50.863Z,24.50
2018-05-29T01:12:50.864Z,24.60
2018-05-29T01:13:50.866Z,25.30
2018-05-29T01:14:50.867Z,24.70
2018-05-29T01:15:50.863Z,24.40
2018-05-29T01:16:50.865Z,25.20
2018-05-29T01:17:50.867Z,24.40
2018-05-29T01:18:50.868Z,23.80
2018-05-29T01:19:50.874Z,25.20
2018-05-29T01:20:50.875Z,24.50
2018-05-29T01:21:50.872Z,25.20
2018-05-29T01:22:50.874Z,25.10
2018-05-29T01:23:50.880Z,24.20
2018-05-29T01:24:50.885Z,24.70
2018-05-29T01:25:50.881Z,24.20
2018-05-29T01:26:50.887Z,24.50
2018-05-29T01:27:50.884Z,24.80
2018-05-29T01:28:50.880Z,25.80
2018-05-29T01:29:50.881Z,24.60
2018-05-29T01:30:50.884Z,25.50
2018-05-29T01:31:50.889Z,24.60
2018-05-29T01:32:50.893Z,23.70
2018-05-29T01:33:50.891Z,24.60
2018-05-29T01:34:50.894Z,24.50
2018-05-29T01:35:50.890Z,25.60
2018-05-29T01:36:50.894Z,25.20
2018-05-29T01:37:50.897Z,24.50
2018-05-29T01:38:50.898Z,24.20
2018-05-29T01:39:50.893Z,24.00
2018-05-29T01:40:50.895Z,24.70
2018-05-29T01:41:50.896Z,26.00
2018-05-29T01:42:50.902Z,24.80
2018-05-29T01:43:50.903Z,25.70
2018-05-29T01:44:50.904Z,26.10
2018-05-29T01:45:50.905Z,26.30
2018-05-29T01:46:50.906Z,25.50
2018-05-29T01:47:50.903Z,25.70
2018-05-29T01:48:50.903Z,25.90
2018-05-29T01:49:50.906Z,24.70
2018-05-29T01:50:50.909Z,25.60
2018-05-29T01:51:50.911Z,25.30
2018-05-29T01:52:50.914Z,25.20
2018-05-29T01:53:50.910Z,25.70
2018-05-29T01:54:50.910Z,25.00
2018-05-29T01:55:50.915Z,25.20
2018-05-29T01:56:50.917Z,25.70
2018-05-29T01:57:50.918Z,25.50
2018-05-29T01:58:50.926Z,24.40
2018-05-29T01:59:50.915Z,25.40
2018-05-29T02:00:50.917Z,25.30
2018-05-29T02:01:50.918Z,25.50
2018-05-29T02:02:50.920Z,25.30
2018-05-29T02:03:50.925Z,25.50
2018-05-29T02:04:50.926Z,24.80
2018-05-29T02:05:50.926Z,23.80
2018-05-29T02:06:50.927Z,24.30
2018-05-29T02:07:50.923Z,24.30
2018-05-29T02:08:50.925Z,23.90
2018-05-29T02:09:50.935Z,24.20
2018-05-29T02:10:50.932Z,25.10
2018-05-29T02:11:50.928Z,24.60
2018-05-29T02:12:50.929Z,24.90
2018-05-29T02:13:50.931Z,25.90
2018-05-29T02:14:50.932Z,26.20
2018-05-29T02:15:50.936Z,26.40
2018-05-29T02:16:50.938Z,26.20
2018-05-29T02:17:50.939Z,26.60
2018-05-29T02:18:50.953Z,25.20
2018-05-29T02:19:50.939Z,25.40
2018-05-29T02:20:50.940Z,25.20
2018-05-29T02:21:50.937Z,25.20
2018-05-29T02:22:50.938Z,25.30
2018-05-29T02:23:50.943Z,26.40
2018-05-29T02:24:50.947Z,25.40
2018-05-29T02:25:50.945Z,26.60
2018-05-29T02:26:50.942Z,25.40
2018-05-29T02:27:50.946Z,25.90
2018-05-29T02:28:50.947Z,27.20
2018-05-29T02:29:50.951Z,27.00
2018-05-29T02:30:50.951Z,27.20
2018-05-29T02:31:50.946Z,26.70
2018-05-29T02:32:50.958Z,27.70
2018-05-29T02:33:50.949Z,26.80
2018-05-29T02:34:50.950Z,27.20
2018-05-29T02:35:50.956Z,27.00
2018-05-29T02:36:50.956Z,27.70
2018-05-29T02:37:50.956Z,25.90
2018-05-29T02:38:50.958Z,26.80
2018-05-29T02:39:50.953Z,26.50
2018-05-29T02:40:50.953Z,27.20
2018-05-29T02:41:50.960Z,26.60
2018-05-29T02:42:50.961Z,28.30
2018-05-29T02:43:50.957Z,28.30
2018-05-29T02:44:50.958Z,27.50
2018-05-29T02:45:50.962Z,27.10
2018-05-29T02:46:50.963Z,27.30
2018-05-29T02:47:50.965Z,27.90
2018-05-29T02:48:50.969Z,27.50
2018-05-29T02:49:50.968Z,26.20
2018-05-29T02:50:50.969Z,27.10
2018-05-29T02:51:50.963Z,26.50
2018-05-29T02:52:50.964Z,25.90
2018-05-29T02:53:50.966Z,27.00
2018-05-29T02:54:50.966Z,27.70
2018-05-29T02:55:50.970Z,26.90
2018-05-29T02:56:50.971Z,25.50
2018-05-29T02:57:50.968Z,25.90
2018-05-29T02:58:50.969Z,27.10
2018-05-29T02:59:50.973Z,24.80
2018-05-29T03:00:50.974Z,26.10
2018-05-29T03:01:50.981Z,26.00
2018-05-29T03:02:50.978Z,26.10
2018-05-29T03:03:50.972Z,26.40
2018-05-29T03:04:50.975Z,25.70
2018-05-29T03:05:50.978Z,26.00
2018-05-29T03:06:50.979Z,24.90
2018-05-29T03:07:50.976Z,26.70
2018-05-29T03:08:50.975Z,27.50
2018-05-29T03:09:50.976Z,27.70
2018-05-29T03:10:50.978Z,26.90
2018-05-29T03:11:50.983Z,27.00
2018-05-29T03:12:50.984Z,27.30
2018-05-29T03:13:50.980Z,26.50
2018-05-29T03:14:50.980Z,26.90
2018-05-29T03:15:50.986Z,26.90
2018-05-29T03:16:50.986Z,26.40
2018-05-29T03:17:50.986Z,26.10
2018-05-29T03:18:50.988Z,26.20
2018-05-29T03:19:50.982Z,26.30
2018-05-29T03:20:51.002Z,26.30
2018-05-29T03:21:50.985Z,26.40
2018-05-29T03:22:50.986Z,26.00
2018-05-29T03:23:50.990Z,26.50
2018-05-29T03:24:50.992Z,26.90
2018-05-29T03:25:50.992Z,26.10
2018-05-29T03:26:50.993Z,26.90
2018-05-29T03:27:50.987Z,25.50
2018-05-29T03:28:50.996Z,27.50
2018-05-29T03:29:50.995Z,27.50
2018-05-29T03:30:50.995Z,27.50
2018-05-29T03:31:50.990Z,28.10
2018-05-29T03:32:50.990Z,28.40
2018-05-29T03:33:50.990Z,28.80
2018-05-29T03:34:50.992Z,27.30
2018-05-29T03:35:50.996Z,28.70
2018-05-29T03:36:50.997Z,27.50
2018-05-29T03:37:50.999Z,27.30
2018-05-29T03:38:50.998Z,25.60
2018-05-29T03:39:50.995Z,27.60
2018-05-29T03:40:50.994Z,27.60
2018-05-29T03:41:50.995Z,27.60
2018-05-29T03:42:50.996Z,28.00
2018-05-29T03:43:51.000Z,26.50
2018-05-29T03:44:51.002Z,27.70
2018-05-29T03:45:50.997Z,25.10
2018-05-29T03:46:50.998Z,27.20
2018-05-29T03:47:51.003Z,25.00
2018-05-29T03:48:51.003Z,25.30
2018-05-29T03:49:51.003Z,27.40
2018-05-29T03:50:51.005Z,27.70
2018-05-29T03:51:50.999Z,26.80
2018-05-29T03:52:51.000Z,27.00
2018-05-29T03:53:51.001Z,27.80
2018-05-29T03:54:51.001Z,28.20
2018-05-29T03:55:51.005Z,26.50
2018-05-29T03:56:51.006Z,29.30
2018-05-29T03:57:51.008Z,28.20
2018-05-29T03:58:51.007Z,28.60
2018-05-29T03:59:51.003Z,27.90
2018-05-29T04:00:51.004Z,28.20
2018-05-29T04:01:51.019Z,28.00
2018-05-29T04:02:51.011Z,28.80
2018-05-29T04:03:51.006Z,27.00
2018-05-29T04:04:51.005Z,28.10
2018-05-29T04:05:51.006Z,28.00
2018-05-29T04:06:51.008Z,27.20
2018-05-29T04:07:51.010Z,26.90
2018-05-29T04:08:51.016Z,25.90
2018-05-29T04:09:51.015Z,25.30
2018-05-29T04:10:51.014Z,26.90
2018-05-29T04:11:51.008Z,25.40
2018-05-29T04:12:51.010Z,27.20
2018-05-29T04:13:51.010Z,28.30
2018-05-29T04:14:51.013Z,26.20
2018-05-29T04:15:51.088Z,27.20
2018-05-29T04:16:51.015Z,26.70
2018-05-29T04:17:51.011Z,28.20
2018-05-29T04:18:51.012Z,27.20
2018-05-29T04:19:51.016Z,27.80
2018-05-29T04:20:51.017Z,27.50
2018-05-29T04:21:51.019Z,27.80
2018-05-29T04:22:51.019Z,26.60
2018-05-29T04:23:51.014Z,25.30
2018-05-29T04:24:51.015Z,25.70
2018-05-29T04:25:51.015Z,26.80
2018-05-29T04:26:51.016Z,28.90
2018-05-29T04:27:51.021Z,29.00
2018-05-29T04:28:51.024Z,29.10
2018-05-29T04:29:51.022Z,28.00
2018-05-29T04:30:51.023Z,28.90
2018-05-29T04:31:51.019Z,27.20
2018-05-29T04:32:51.020Z,27.00
2018-05-29T04:33:51.026Z,26.90
2018-05-29T04:34:51.026Z,24.80
2018-05-29T04:35:51.021Z,27.50
2018-05-29T04:36:51.022Z,27.90
2018-05-29T04:37:51.023Z,27.70
2018-05-29T04:38:51.025Z,28.20
2018-05-29T04:39:51.029Z,28.60
2018-05-29T04:40:51.030Z,29.30
2018-05-29T04:41:51.033Z,29.30
2018-05-29T04:42:51.033Z,29.00
2018-05-29T04:43:51.027Z,28.40
2018-05-29T04:44:51.029Z,28.40
2018-05-29T04:45:51.029Z,27.70
2018-05-29T04:46:51.031Z,28.40
2018-05-29T04:47:51.036Z,29.30
2018-05-29T04:48:51.041Z,28.80
2018-05-29T04:49:51.033Z,28.70
2018-05-29T04:50:51.035Z,27.80
2018-05-29T04:51:51.039Z,26.90
2018-05-29T04:52:51.040Z,27.40
2018-05-29T04:53:51.042Z,26.50
2018-05-29T04:54:51.043Z,26.60
2018-05-29T04:55:51.041Z,27.80
2018-05-29T04:56:51.042Z,27.70
2018-05-29T04:57:51.044Z,26.40
2018-05-29T04:58:51.044Z,26.60
2018-05-29T04:59:51.051Z,27.20
2018-05-29T05:00:51.053Z,28.20
2018-05-29T05:01:51.053Z,27.30
2018-05-29T05:02:51.054Z,28.10
2018-05-29T05:03:51.051Z,27.00
2018-05-29T05:04:51.054Z,27.00
2018-05-29T05:05:51.059Z,26.60
2018-05-29T05:06:51.061Z,26.60
2018-05-29T05:07:51.058Z,25.10
2018-05-29T05:08:51.063Z,26.40
2018-05-29T05:09:51.061Z,28.30
2018-05-29T05:10:51.065Z,29.10
2018-05-29T05:11:51.068Z,29.40
2018-05-29T05:12:51.070Z,30.00
2018-05-29T05:13:51.072Z,27.90
2018-05-29T05:14:51.074Z,29.60
2018-05-29T05:15:51.071Z,29.50
2018-05-29T05:16:51.073Z,30.10
2018-05-29T05:17:51.074Z,29.10
2018-05-29T05:18:51.076Z,30.70
2018-05-29T05:19:51.082Z,29.50
2018-05-29T05:20:51.086Z,29.80
2018-05-29T05:21:51.088Z,29.70
2018-05-29T05:22:51.083Z,29.60
2018-05-29T05:23:51.091Z,30.20
2018-05-29T05:24:51.092Z,29.40
2018-05-29T05:25:51.093Z,30.10
2018-05-29T05:26:51.096Z,30.50
2018-05-29T05:27:51.093Z,30.40
2018-05-29T05:28:51.094Z,29.70
2018-05-29T05:29:51.097Z,30.80
2018-05-29T05:30:51.099Z,29.90
2018-05-29T05:31:51.109Z,29.40
2018-05-29T05:32:51.109Z,30.30
2018-05-29T05:33:51.113Z,28.90
2018-05-29T05:34:51.120Z,29.70
2018-05-29T05:35:51.113Z,29.20
2018-05-29T05:36:51.117Z,27.20
2018-05-29T05:37:51.126Z,27.70
2018-05-29T05:38:51.130Z,40.70
2018-05-29T05:39:51.130Z,178.80
2018-05-29T05:40:51.132Z,338.40
2018-05-29T05:41:51.145Z,597.60
2018-05-29T05:42:51.142Z,872.20
2018-05-29T05:43:51.152Z,959.80
2018-05-29T05:44:51.156Z,911.60
2018-05-29T05:45:51.161Z,833.10
2018-05-29T05:46:51.166Z,770.40
2018-05-29T05:47:51.166Z,694.20
2018-05-29T05:48:51.172Z,583.60
2018-05-29T05:49:51.179Z,514.40
2018-05-29T05:50:51.185Z,407.90
2018-05-29T05:51:51.194Z,367.90
2018-05-29T05:52:51.200Z,386.40
2018-05-29T05:53:51.200Z,408.60
2018-05-29T05:54:51.207Z,469.30
2018-05-29T05:55:51.219Z,477.40
2018-05-29T05:56:51.223Z,398.80
2018-05-29T05:57:51.227Z,418.60
2018-05-29T05:58:51.234Z,459.80
2018-05-29T05:59:51.235Z,469.60
2018-05-29T06:00:51.241Z,505.50
2018-05-29T06:01:51.249Z,485.20
2018-05-29T06:02:51.255Z,479.50
2018-05-29T06:03:51.266Z,444.90
2018-05-29T06:04:51.272Z,350.50
2018-05-29T06:05:51.281Z,315.20
2018-05-29T06:06:51.289Z,245.80
2018-05-29T06:07:51.290Z,120.60
2018-05-29T06:08:51.297Z,59.40
2018-05-29T06:09:51.310Z,50.90
2018-05-29T06:10:51.318Z,30.60
2018-05-29T06:11:51.319Z,30.40
2018-05-29T06:12:51.327Z,27.80
2018-05-29T06:13:51.336Z,30.90
2018-05-29T06:14:51.344Z,24.80
2018-05-29T06:15:51.356Z,17.20
2018-05-29T06:16:51.367Z,15.40
2018-05-29T06:17:51.375Z,15.90
2018-05-29T06:18:51.383Z,13.90
2018-05-29T06:19:51.388Z,14.10
2018-05-29T06:20:51.397Z,13.90
2018-05-29T06:21:51.404Z,12.80
2018-05-29T06:22:51.413Z,12.50
2018-05-29T06:23:51.426Z,12.20
2018-05-29T06:24:51.436Z,12.00
2018-05-29T06:25:51.439Z,11.30
2018-05-29T06:26:51.448Z,11.20
2018-05-29T06:27:51.461Z,10.70
2018-05-29T06:28:51.471Z,11.30
2018-05-29T06:29:51.483Z,11.60
2018-05-29T06:30:51.494Z,11.40
2018-05-29T06:31:51.493Z,11.10
2018-05-29T06:32:51.514Z,11.00
2018-05-29T06:33:51.512Z,11.40
2018-05-29T06:34:51.523Z,11.10
2018-05-29T06:35:51.539Z,11.20
2018-05-29T06:36:51.545Z,10.70
2018-05-29T06:37:51.555Z,10.30
2018-05-29T06:38:51.565Z,10.70
2018-05-29T06:39:51.569Z,10.00
2018-05-29T06:40:51.580Z,9.70
2018-05-29T06:41:51.594Z,9.50
2018-05-29T06:42:51.606Z,9.50
2018-05-29T06:43:51.610Z,7.80
2018-05-29T06:44:51.688Z,8.30
2018-05-29T06:45:51.632Z,8.90
2018-05-29T06:46:51.642Z,8.80
2018-05-29T06:47:51.657Z,8.50
2018-05-29T06:48:51.667Z,8.00
2018-05-29T06:49:51.680Z,8.50
2018-05-29T06:50:51.692Z,8.30
2018-05-29T06:51:51.697Z,7.20
2018-05-29T06:52:51.711Z,7.20
2018-05-29T06:53:51.721Z,7.60
2018-05-29T06:54:51.731Z,7.00
2018-05-29T06:55:51.746Z,7.00
2018-05-29T06:56:51.758Z,6.20
2018-05-29T06:57:51.868Z,6.50
2018-05-29T06:58:51.778Z,5.50
2018-05-29T06:59:51.793Z,6.00
2018-05-29T07:00:51.806Z,6.10
2018-05-29T07:01:51.820Z,6.30
2018-05-29T07:02:51.839Z,5.10
2018-05-29T07:03:51.883Z,5.40
2018-05-29T07:04:51.853Z,5.30
2018-05-29T07:05:51.867Z,4.80
2018-05-29T07:06:51.879Z,4.90
2018-05-29T07:07:51.897Z,5.10
2018-05-29T07:08:51.911Z,4.60
2018-05-29T07:09:51.925Z,5.00
2018-05-29T07:10:51.938Z,5.20
2018-05-29T07:11:51.946Z,4.90
2018-05-29T07:12:51.962Z,4.70
2018-05-29T07:13:51.978Z,4.40
2018-05-29T07:14:51.994Z,4.40
2018-05-29T07:15:52.002Z,5.30
2018-05-29T07:16:52.016Z,4.40
2018-05-29T07:17:52.030Z,4.10
2018-05-29T07:18:52.048Z,3.90
2018-05-29T07:19:52.070Z,4.00
2018-05-29T07:20:52.077Z,4.10
2018-05-29T07:21:52.092Z,4.20
2018-05-29T07:22:52.108Z,4.30
2018-05-29T07:23:52.116Z,4.80
2018-05-29T07:24:52.131Z,3.80
2018-05-29T07:25:52.146Z,3.90
2018-05-29T07:26:52.161Z,4.50
2018-05-29T07:27:52.183Z,3.90
2018-05-29T07:28:52.196Z,4.10
2018-05-29T07:29:52.207Z,3.80
2018-05-29T07:30:52.226Z,3.80
2018-05-29T07:31:52.240Z,3.90
2018-05-29T07:32:52.256Z,4.00
2018-05-29T07:33:52.273Z,4.00
2018-05-29T07:34:52.288Z,3.70
2018-05-29T07:35:52.297Z,4.40
2018-05-29T07:36:52.313Z,4.00
2018-05-29T07:37:52.329Z,3.90
2018-05-29T07:38:52.365Z,4.40
2018-05-29T07:39:52.366Z,3.70
2018-05-29T07:40:52.381Z,4.10
2018-05-29T07:41:52.397Z,4.20
2018-05-29T07:42:52.415Z,4.30
2018-05-29T07:43:52.424Z,4.10
2018-05-29T07:44:52.441Z,4.10
2018-05-29T07:45:52.462Z,4.50
2018-05-29T07:46:52.478Z,4.20
2018-05-29T07:47:52.495Z,4.60
2018-05-29T07:48:52.508Z,4.40
2018-05-29T07:49:52.524Z,4.10
2018-05-29T07:50:52.540Z,4.00
2018-05-29T07:51:52.578Z,4.10
2018-05-29T07:52:52.579Z,4.30
2018-05-29T07:53:52.598Z,4.10
2018-05-29T07:54:52.616Z,4.30
2018-05-29T07:55:52.635Z,4.50
2018-05-29T07:56:52.643Z,4.70
2018-05-29T07:57:52.660Z,4.50
2018-05-29T07:58:52.725Z,4.50
2018-05-29T07:59:52.700Z,4.60
2018-05-29T08:00:52.767Z,5.00
2018-05-29T08:01:52.731Z,4.60
2018-05-29T08:02:52.748Z,4.60
2018-05-29T08:03:52.772Z,4.50
2018-05-29T08:04:52.788Z,4.40
2018-05-29T08:05:52.806Z,4.20
2018-05-29T08:06:52.825Z,4.10
2018-05-29T08:07:52.836Z,3.80
2018-05-29T08:08:52.854Z,3.80
2018-05-29T08:09:52.877Z,4.10
2018-05-29T08:10:52.891Z,4.00
2018-05-29T08:11:52.912Z,4.30
2018-05-29T08:12:52.931Z,3.80
2018-05-29T08:13:52.948Z,3.90
2018-05-29T08:14:52.967Z,4.00
2018-05-29T08:15:52.980Z,4.30
2018-05-29T08:16:53.002Z,4.30
2018-05-29T08:17:53.025Z,4.70
2018-05-29T08:18:53.039Z,4.50
2018-05-29T08:19:53.052Z,4.60
2018-05-29T08:20:53.069Z,4.40
2018-05-29T08:21:53.089Z,4.30
2018-05-29T08:22:53.107Z,4.00
2018-05-29T08:23:53.129Z,3.80
2018-05-29T08:24:53.149Z,3.50
2018-05-29T08:25:53.166Z,3.70
2018-05-29T08:26:53.185Z,3.40
2018-05-29T08:27:53.199Z,3.20
2018-05-29T08:28:53.217Z,3.60
2018-05-29T08:29:53.236Z,3.40
2018-05-29T08:30:53.261Z,3.50
2018-05-29T08:31:53.279Z,3.60
2018-05-29T08:32:53.301Z,3.60
2018-05-29T08:33:53.313Z,3.20
2018-05-29T08:34:53.339Z,3.20
2018-05-29T08:35:53.362Z,3.20
2018-05-29T08:36:53.378Z,3.30
2018-05-29T08:37:53.401Z,2.90
2018-05-29T08:38:53.421Z,3.00
2018-05-29T08:39:53.433Z,3.10
2018-05-29T08:40:53.454Z,3.20
2018-05-29T08:41:53.475Z,3.30
2018-05-29T08:42:53.495Z,3.30
2018-05-29T08:43:53.520Z,3.20
2018-05-29T08:44:53.541Z,3.10
2018-05-29T08:45:53.563Z,3.30
2018-05-29T08:46:53.622Z,3.30
2018-05-29T08:47:53.605Z,3.20
2018-05-29T08:48:53.623Z,3.10
2018-05-29T08:49:53.653Z,3.10
2018-05-29T08:50:53.669Z,3.70
2018-05-29T08:51:53.685Z,3.20
2018-05-29T08:52:53.711Z,3.50
2018-05-29T08:53:53.729Z,3.50
2018-05-29T08:54:53.752Z,3.50
2018-05-29T08:55:53.777Z,3.60
2018-05-29T08:56:53.800Z,3.50
2018-05-29T08:57:53.822Z,3.30
2018-05-29T08:58:53.844Z,3.50
2018-05-29T08:59:53.861Z,3.60
2018-05-29T09:00:53.883Z,3.30
2018-05-29T09:01:53.905Z,3.30
2018-05-29T09:02:53.934Z,3.40
2018-05-29T09:03:53.958Z,3.60
2018-05-29T09:04:53.977Z,3.60
2018-05-29T09:05:53.995Z,3.50
2018-05-29T09:06:54.019Z,3.40
2018-05-29T09:07:54.045Z,3.60
2018-05-29T09:08:54.066Z,3.30
2018-05-29T09:09:54.089Z,3.30
2018-05-29T09:10:54.112Z,3.30
2018-05-29T09:11:54.190Z,3.40
2018-05-29T09:12:54.154Z,3.40
2018-05-29T09:13:54.176Z,3.60
2018-05-29T09:14:54.200Z,3.60
2018-05-29T09:15:54.226Z,3.00
2018-05-29T09:16:54.251Z,3.60
2018-05-29T09:17:54.275Z,3.70
2018-05-29T09:18:54.298Z,3.30
2018-05-29T09:19:54.383Z,3.10
2018-05-29T09:20:54.339Z,2.90
2018-05-29T09:21:54.371Z,2.90
2018-05-29T09:22:54.394Z,3.40
2018-05-29T09:23:54.413Z,3.40
2018-05-29T09:24:54.440Z,3.40
2018-05-29T09:25:54.463Z,3.50
2018-05-29T09:26:54.486Z,3.40
2018-05-29T09:27:54.516Z,3.40
2018-05-29T09:28:54.531Z,3.20
2018-05-29T09:29:54.584Z,3.40
2018-05-29T09:30:54.581Z,3.40
2018-05-29T09:31:54.605Z,3.50
2018-05-29T09:32:54.619Z,3.30
2018-05-29T09:33:54.651Z,3.60
2018-05-29T09:34:54.665Z,3.40
2018-05-29T09:35:54.690Z,3.70
2018-05-29T09:36:54.713Z,3.60
2018-05-29T09:37:54.732Z,3.50
2018-05-29T09:38:54.759Z,3.60
2018-05-29T09:39:54.781Z,3.50
2018-05-29T09:40:54.804Z,3.60
2018-05-29T09:41:54.827Z,3.80
2018-05-29T09:42:54.850Z,3.40
2018-05-29T09:43:54.867Z,3.30
2018-05-29T09:44:54.889Z,3.50
2018-05-29T09:45:55.011Z,3.40
2018-05-29T09:46:54.940Z,3.70
2018-05-29T09:47:54.967Z,3.50
2018-05-29T09:48:54.986Z,3.30
2018-05-29T09:49:55.008Z,3.50
2018-05-29T09:50:55.030Z,3.90
2018-05-29T09:51:55.048Z,4.20
2018-05-29T09:52:55.094Z,4.30
2018-05-29T09:53:55.097Z,4.10
2018-05-29T09:54:55.119Z,5.00
2018-05-29T09:55:55.139Z,5.00
2018-05-29T09:56:55.172Z,4.00
2018-05-29T09:57:55.179Z,3.90
2018-05-29T09:58:55.203Z,4.00
2018-05-29T09:59:55.227Z,3.50
2018-05-29T10:00:55.249Z,3.60
2018-05-29T10:01:55.269Z,4.10
2018-05-29T10:02:55.292Z,3.60
2018-05-29T10:03:55.307Z,4.60
2018-05-29T10:04:55.329Z,3.90
2018-05-29T10:05:55.349Z,3.70
2018-05-29T10:06:55.422Z,3.80
2018-05-29T10:07:55.395Z,3.80
2018-05-29T10:08:55.417Z,3.60
2018-05-29T10:09:55.433Z,4.70
2018-05-29T10:10:55.454Z,4.20
2018-05-29T10:11:55.478Z,4.70
2018-05-29T10:12:55.500Z,3.30
2018-05-29T10:13:55.520Z,3.90
2018-05-29T10:14:55.542Z,4.00
2018-05-29T10:15:55.557Z,3.70
2018-05-29T10:16:55.579Z,3.80
2018-05-29T10:17:55.603Z,3.80
2018-05-29T10:18:55.621Z,3.60
2018-05-29T10:19:55.648Z,3.30
2018-05-29T10:20:55.669Z,3.50
2018-05-29T10:21:55.691Z,3.40
2018-05-29T10:22:55.713Z,3.40
2018-05-29T10:23:55.730Z,3.50
2018-05-29T10:24:55.752Z,3.60
2018-05-29T10:25:55.787Z,3.60
2018-05-29T10:26:55.854Z,3.40
2018-05-29T10:27:55.818Z,3.60
2018-05-29T10:28:55.841Z,3.70
2018-05-29T10:29:55.866Z,3.50
2018-05-29T10:30:55.960Z,3.80
2018-05-29T10:31:55.913Z,4.00
2018-05-29T10:32:55.936Z,3.70
2018-05-29T10:33:55.958Z,3.90
2018-05-29T10:34:55.981Z,3.80
2018-05-29T10:35:55.999Z,4.00
2018-05-29T10:36:56.021Z,3.90
2018-05-29T10:37:56.044Z,3.70
2018-05-29T10:38:56.066Z,3.80
2018-05-29T10:39:56.092Z,3.80
2018-05-29T10:40:56.116Z,3.80
2018-05-29T10:41:56.134Z,3.80
2018-05-29T10:42:56.155Z,4.10
2018-05-29T10:43:56.182Z,4.20
2018-05-29T10:44:56.204Z,4.20
2018-05-29T10:45:56.236Z,4.50
2018-05-29T10:46:56.249Z,4.80
2018-05-29T10:47:56.264Z,4.70
2018-05-29T10:48:56.286Z,5.00
2018-05-29T10:49:56.307Z,5.00
2018-05-29T10:50:56.334Z,5.00
2018-05-29T10:51:56.354Z,4.90
2018-05-29T10:52:56.375Z,5.00
2018-05-29T10:53:56.399Z,4.90
2018-05-29T10:54:56.417Z,4.90
2018-05-29T10:55:56.437Z,4.80
2018-05-29T10:56:56.454Z,5.10
2018-05-29T10:57:56.480Z,4.70
2018-05-29T10:58:56.501Z,4.80
2018-05-29T10:59:56.517Z,4.60
2018-05-29T11:00:56.537Z,5.10
2018-05-29T11:01:56.557Z,5.40
2018-05-29T11:02:56.581Z,6.40
2018-05-29T11:03:56.602Z,5.50
2018-05-29T11:04:56.625Z,6.10
2018-05-29T11:05:56.643Z,6.30
2018-05-29T11:06:56.708Z,5.60
2018-05-29T11:07:56.677Z,5.40
2018-05-29T11:08:56.698Z,6.10
2018-05-29T11:09:56.722Z,6.10
2018-05-29T11:10:56.737Z,6.10
2018-05-29T11:11:56.762Z,7.40
2018-05-29T11:12:56.783Z,7.10
2018-05-29T11:13:56.794Z,6.30
2018-05-29T11:14:56.812Z,7.50
2018-05-29T11:15:56.838Z,6.30
2018-05-29T11:16:56.854Z,7.40
2018-05-29T11:17:56.872Z,6.30
2018-05-29T11:18:56.892Z,6.50
2018-05-29T11:19:56.904Z,7.50
2018-05-29T11:20:56.924Z,7.30
2018-05-29T11:21:56.941Z,8.00
2018-05-29T11:22:56.960Z,7.70
2018-05-29T11:23:56.981Z,8.30
2018-05-29T11:24:56.997Z,8.60
2018-05-29T11:25:57.016Z,8.10
2018-05-29T11:26:57.033Z,8.50
2018-05-29T11:27:57.045Z,8.20
2018-05-29T11:28:57.060Z,9.00
2018-05-29T11:29:57.085Z,9.20
2018-05-29T11:30:57.099Z,9.10
2018-05-29T11:31:57.108Z,9.10
2018-05-29T11:32:57.132Z,9.40
2018-05-29T11:33:57.140Z,9.40
2018-05-29T11:34:57.156Z,10.40
2018-05-29T11:35:57.174Z,11.50
2018-05-29T11:36:57.190Z,11.40
2018-05-29T11:37:57.208Z,11.00
2018-05-29T11:38:57.223Z,11.30
2018-05-29T11:39:57.232Z,11.10
2018-05-29T11:40:57.249Z,11.50
2018-05-29T11:41:57.261Z,10.70
2018-05-29T11:42:57.276Z,10.80
2018-05-29T11:43:57.294Z,11.50
2018-05-29T11:44:57.308Z,11.30
2018-05-29T11:45:57.320Z,11.30
2018-05-29T11:46:57.334Z,11.10
2018-05-29T11:47:57.352Z,11.60
2018-05-29T11:48:57.367Z,10.60
2018-05-29T11:49:57.381Z,11.70
2018-05-29T11:50:57.397Z,11.80
2018-05-29T11:51:57.407Z,11.80
2018-05-29T11:52:57.419Z,12.20
2018-05-29T11:53:57.433Z,12.50
2018-05-29T11:54:57.554Z,12.70
2018-05-29T11:55:57.468Z,12.40
2018-05-29T11:56:57.479Z,12.50
2018-05-29T11:57:57.493Z,11.70
2018-05-29T11:58:57.506Z,12.50
2018-05-29T11:59:57.514Z,12.30
2018-05-29T12:00:57.528Z,11.30
2018-05-29T12:01:57.545Z,11.90
2018-05-29T12:02:57.559Z,11.80
2018-05-29T12:03:57.567Z,10.60
2018-05-29T12:04:57.580Z,11.90
2018-05-29T12:05:57.594Z,12.10
2018-05-29T12:06:57.608Z,11.40
2018-05-29T12:07:57.623Z,12.30
2018-05-29T12:08:57.637Z,12.40
2018-05-29T12:09:57.650Z,12.50
2018-05-29T12:10:57.663Z,11.60
2018-05-29T12:11:57.671Z,12.20
2018-05-29T12:12:57.683Z,12.30
2018-05-29T12:13:57.700Z,11.90
2018-05-29T12:14:57.710Z,11.30
2018-05-29T12:15:57.725Z,11.60
2018-05-29T12:16:57.785Z,12.30
2018-05-29T12:17:57.749Z,12.10
2018-05-29T12:18:57.760Z,11.60
2018-05-29T12:19:57.778Z,12.10
2018-05-29T12:20:57.789Z,11.60
2018-05-29T12:21:57.803Z,11.60
2018-05-29T12:22:57.816Z,12.20
2018-05-29T12:23:57.823Z,11.20
2018-05-29T12:24:57.836Z,12.30
2018-05-29T12:25:57.848Z,10.60
2018-05-29T12:26:57.862Z,11.10
2018-05-29T12:27:57.880Z,11.40
2018-05-29T12:28:57.890Z,11.30
2018-05-29T12:29:57.903Z,11.50
2018-05-29T12:30:57.915Z,11.20
2018-05-29T12:31:57.923Z,10.70
2018-05-29T12:32:57.936Z,11.80
2018-05-29T12:33:57.952Z,11.60
2018-05-29T12:34:57.965Z,11.90
2018-05-29T12:35:57.973Z,12.00
2018-05-29T12:36:57.985Z,12.70
2018-05-29T12:37:57.999Z,11.10
2018-05-29T12:38:58.010Z,11.20
2018-05-29T12:39:58.027Z,10.70
2018-05-29T12:40:58.041Z,9.90
2018-05-29T12:41:58.052Z,11.40
2018-05-29T12:42:58.065Z,11.40
2018-05-29T12:43:58.074Z,11.30
2018-05-29T12:44:58.082Z,10.40
2018-05-29T12:45:58.094Z,10.60
2018-05-29T12:46:58.106Z,10.60
2018-05-29T12:47:58.126Z,11.20
2018-05-29T12:48:58.134Z,10.70
2018-05-29T12:49:58.142Z,11.30
2018-05-29T12:50:58.154Z,10.10
2018-05-29T12:51:58.171Z,10.90
2018-05-29T12:52:58.182Z,10.50
2018-05-29T12:53:58.197Z,10.30
2018-05-29T12:54:58.206Z,10.80
2018-05-29T12:55:58.215Z,11.80
2018-05-29T12:56:58.225Z,11.20
2018-05-29T12:57:58.237Z,11.00
2018-05-29T12:58:58.252Z,11.60
2018-05-29T12:59:58.264Z,12.30
2018-05-29T13:00:58.276Z,13.00
2018-05-29T13:01:58.289Z,12.10